Current | Forecast
Updated: 9:00 PM JST on April 29, 2017
Observed at Kobe Airport, Japan
Temperature 61°F
Humidity 82%
Dew Point 55°F
Wind SW at 5 mph
Pressure 29.80 in (Rising)
Conditions Clear
Visibility -
UV N/A
Clouds
Yesterday's Maximum 64°F
Yesterday's Minimum 55°F approx.
Yesterday's Heating Degree Days 5 approx.
Sunrise5:09 AM JST
Sunset6:40 PM JST
Moon Rise7:28 AM JST
Moon Set9:45 PM JST
Moon PhaseMoon Phase
Waxing Crescent
Raw METARMETAR RJBE 291200Z 22004KT CAVOK 16/13 Q1009


Monday
. High: 80° F.
Tuesday
. High: 77° F.
Wednesday
. High: 75° F.
Thursday
. High: 77° F.
Friday
. High: 84° F.
Saturday
. High: 80° F.
Sunday
. High: 84° F.
Monday
. High: 82° F.

Units: English | Metric

Find the Weather for any City, State or Zipcode, or Country:

U.S. State List | Severe Weather | Tropical Storms | Ski Conditions
United States | Canada | Central America | South America | Asia | Europe | Australia | Africa | Islands

Weather Underground

© Copyright 2017
The Weather Company, LLC